Time;durP1;ratioP1;P1;durP2;ratioP2;P2;SDS_P1;SDS_P2;PMS_P1;PMS_P2;Temp;Humidity;BMP_temperature;BMP_pressure;BME280_temperature;BME280_humidity;BME280_pressure;Samples;Min_cycle;Max_cycle;Signal;HPM_P1;HPM_P2
2021/10/01 00:02:04;;;;;;;16.48;1.98;;;;;;;;;;5054687;28;20029;-81
2021/10/01 00:04:29;;;;;;;14.95;2.00;;;;;;;;;;5054708;28;20029;-81
2021/10/01 00:06:55;;;;;;;12.38;2.13;;;;;;;;;;5054586;28;20017;-81
2021/10/01 00:09:20;;;;;;;13.95;2.75;;;;;;;;;;5054630;28;20025;-80
2021/10/01 00:11:54;;;;;;;9.35;2.00;;;;;;;;;;5054455;28;20032;-81
2021/10/01 00:14:20;;;;;;;15.30;2.33;;;;;;;;;;5053298;28;20440;-80
2021/10/01 00:16:46;;;;;;;8.15;1.45;;;;;;;;;;5054446;28;20078;-80
2021/10/01 00:19:12;;;;;;;17.13;2.40;;;;;;;;;;5054756;28;20025;-80
2021/10/01 00:21:37;;;;;;;16.00;2.72;;;;;;;;;;5052390;28;20028;-80
2021/10/01 00:24:02;;;;;;;10.88;1.90;;;;;;;;;;5054323;28;20033;-78
2021/10/01 00:26:28;;;;;;;8.48;1.60;;;;;;;;;;5045418;28;20032;-81
2021/10/01 00:28:53;;;;;;;10.88;1.80;;;;;;;;;;5054189;28;20028;-80
2021/10/01 00:31:18;;;;;;;18.98;2.00;;;;;;;;;;5054310;28;20033;-80
2021/10/01 00:33:43;;;;;;;13.80;1.77;;;;;;;;;;5053712;28;20025;-81
2021/10/01 00:36:09;;;;;;;13.50;2.15;;;;;;;;;;5053803;28;20033;-80
2021/10/01 00:38:34;;;;;;;10.32;2.38;;;;;;;;;;5053939;28;20048;-81
2021/10/01 00:40:59;;;;;;;15.52;2.00;;;;;;;;;;5053989;28;20021;-80
2021/10/01 00:43:24;;;;;;;24.27;2.28;;;;;;;;;;5053734;28;20021;-81
2021/10/01 00:45:50;;;;;;;17.80;2.92;;;;;;;;;;5053418;28;20029;-80
2021/10/01 00:48:15;;;;;;;31.88;2.83;;;;;;;;;;5053891;28;20383;-81
2021/10/01 00:50:40;;;;;;;14.18;2.30;;;;;;;;;;5053986;28;20473;-80
2021/10/01 00:53:06;;;;;;;13.85;1.60;;;;;;;;;;5053756;28;20040;-80
2021/10/01 00:55:31;;;;;;;20.80;3.17;;;;;;;;;;5052271;28;20175;-81
2021/10/01 00:57:57;;;;;;;12.40;1.95;;;;;;;;;;5053644;28;20454;-80
2021/10/01 01:00:28;;;;;;;11.68;1.92;;;;;;;;;;5053773;28;20028;-80
2021/10/01 01:02:54;;;;;;;17.58;2.13;;;;;;;;;;5053622;28;20021;-81
2021/10/01 01:05:21;;;;;;;16.92;2.20;;;;;;;;;;5053492;28;20017;-80
2021/10/01 01:08:00;;;;;;;13.48;2.28;;;;;;;;;;5053459;28;20029;-80
2021/10/01 01:10:28;;;;;;;8.55;2.13;;;;;;;;;;5053474;28;20024;-81
2021/10/01 01:13:05;;;;;;;16.38;2.20;;;;;;;;;;5053435;28;20079;-80
2021/10/01 01:15:32;;;;;;;19.52;2.78;;;;;;;;;;5053128;28;20112;-80
2021/10/01 01:17:59;;;;;;;12.98;2.13;;;;;;;;;;5053088;28;20489;-80
2021/10/01 01:20:25;;;;;;;12.60;1.85;;;;;;;;;;5053353;28;20025;-81
2021/10/01 01:23:01;;;;;;;15.32;1.83;;;;;;;;;;5053341;28;20450;-81
2021/10/01 01:25:45;;;;;;;17.38;2.28;;;;;;;;;;5053076;28;20123;-81
2021/10/01 01:28:10;;;;;;;15.63;2.70;;;;;;;;;;5053339;28;20021;-80
2021/10/01 01:30:40;;;;;;;12.27;1.90;;;;;;;;;;5051998;28;20036;-80
2021/10/01 01:33:06;;;;;;;10.85;1.65;;;;;;;;;;5053195;28;20013;-80
2021/10/01 01:35:34;;;;;;;6.97;1.25;;;;;;;;;;5053150;28;20049;-80
2021/10/01 01:38:07;;;;;;;11.85;2.55;;;;;;;;;;5053089;28;20057;-80
2021/10/01 01:40:34;;;;;;;12.20;2.40;;;;;;;;;;5053191;28;20025;-81
2021/10/01 01:43:00;;;;;;;8.93;1.55;;;;;;;;;;5053122;28;20043;-80
2021/10/01 01:45:26;;;;;;;13.77;1.95;;;;;;;;;;5052933;28;20094;-81
2021/10/01 01:47:52;;;;;;;17.83;2.03;;;;;;;;;;5053086;28;20021;-81
2021/10/01 01:50:19;;;;;;;27.30;2.55;;;;;;;;;;5053076;28;20037;-81
2021/10/01 01:52:44;;;;;;;19.50;2.22;;;;;;;;;;5053043;28;20040;-81
2021/10/01 01:55:11;;;;;;;22.38;2.55;;;;;;;;;;5052775;28;20033;-81
2021/10/01 01:57:37;;;;;;;15.27;2.03;;;;;;;;;;5056249;28;20060;-81
2021/10/01 02:00:04;;;;;;;10.85;2.47;;;;;;;;;;5056539;28;20473;-80
2021/10/01 02:02:30;;;;;;;17.50;1.92;;;;;;;;;;5056955;28;20018;-81
2021/10/01 02:04:56;;;;;;;32.50;4.40;;;;;;;;;;5056382;28;20478;-80
2021/10/01 02:07:23;;;;;;;21.80;2.72;;;;;;;;;;5056960;28;20025;-80
2021/10/01 02:09:49;;;;;;;19.60;2.53;;;;;;;;;;5056538;28;20539;-81
2021/10/01 02:12:15;;;;;;;23.15;2.35;;;;;;;;;;5056932;28;20112;-80
2021/10/01 02:14:43;;;;;;;18.20;2.80;;;;;;;;;;5056101;28;20121;-81
2021/10/01 02:17:09;;;;;;;19.08;2.40;;;;;;;;;;5056156;28;20040;-80
2021/10/01 02:19:35;;;;;;;15.82;2.53;;;;;;;;;;5056655;28;20063;-80
2021/10/01 02:22:02;;;;;;;21.38;4.10;;;;;;;;;;5056452;28;20029;-80
2021/10/01 02:24:30;;;;;;;22.10;2.65;;;;;;;;;;5056593;28;20048;-81
2021/10/01 02:27:01;;;;;;;20.25;2.90;;;;;;;;;;5056600;28;20056;-80
2021/10/01 02:29:44;;;;;;;19.67;2.47;;;;;;;;;;5056474;28;20025;-81
2021/10/01 02:32:25;;;;;;;12.65;2.42;;;;;;;;;;5056674;28;20029;-80
2021/10/01 02:34:50;;;;;;;19.35;2.58;;;;;;;;;;5056038;28;20045;-80
2021/10/01 02:37:16;;;;;;;18.60;2.00;;;;;;;;;;5056359;28;20385;-80
2021/10/01 02:39:43;;;;;;;18.23;2.42;;;;;;;;;;5055035;28;20043;-80
2021/10/01 02:42:09;;;;;;;16.20;2.90;;;;;;;;;;5056326;28;20083;-80
2021/10/01 02:44:35;;;;;;;19.75;2.53;;;;;;;;;;5055988;28;20386;-80
2021/10/01 02:47:00;;;;;;;19.40;3.13;;;;;;;;;;5056167;28;20032;-80
2021/10/01 02:49:25;;;;;;;16.23;2.90;;;;;;;;;;5056257;28;20036;-80
2021/10/01 02:51:54;;;;;;;15.45;1.98;;;;;;;;;;5054756;28;20087;-80
2021/10/01 02:54:24;;;;;;;21.17;2.35;;;;;;;;;;5055997;28;20028;-80
2021/10/01 02:56:54;;;;;;;19.08;2.30;;;;;;;;;;5056012;28;20052;-80
2021/10/01 02:59:22;;;;;;;13.98;2.25;;;;;;;;;;5056259;28;20057;-81
2021/10/01 03:01:48;;;;;;;24.75;3.30;;;;;;;;;;5055853;28;20503;-80
2021/10/01 03:04:14;;;;;;;13.60;2.20;;;;;;;;;;5056137;28;20116;-80
2021/10/01 03:06:41;;;;;;;16.05;2.58;;;;;;;;;;5055347;28;20036;-80
2021/10/01 03:09:07;;;;;;;19.20;2.90;;;;;;;;;;5055730;28;20028;-80
2021/10/01 03:11:33;;;;;;;15.10;1.90;;;;;;;;;;5055051;28;20029;-80
2021/10/01 03:13:59;;;;;;;18.50;2.42;;;;;;;;;;5055651;28;20378;-79
2021/10/01 03:16:25;;;;;;;14.88;2.38;;;;;;;;;;5055563;28;20389;-79
2021/10/01 03:18:51;;;;;;;16.35;2.20;;;;;;;;;;5055508;28;20039;-80
2021/10/01 03:21:18;;;;;;;16.27;2.35;;;;;;;;;;5055643;28;20044;-79
2021/10/01 03:23:44;;;;;;;11.00;2.05;;;;;;;;;;5054029;28;20017;-79
2021/10/01 03:26:10;;;;;;;14.68;2.03;;;;;;;;;;5055115;28;20025;-79
2021/10/01 03:28:36;;;;;;;18.35;1.98;;;;;;;;;;5055114;28;20466;-79
2021/10/01 03:31:02;;;;;;;16.02;3.08;;;;;;;;;;5055290;28;20017;-77
2021/10/01 03:33:28;;;;;;;24.55;2.60;;;;;;;;;;5055354;28;20029;-80
2021/10/01 03:35:54;;;;;;;15.05;2.05;;;;;;;;;;5053399;28;20215;-79
2021/10/01 03:38:19;;;;;;;20.00;2.35;;;;;;;;;;5055156;28;20048;-79
2021/10/01 03:40:46;;;;;;;14.13;2.05;;;;;;;;;;5055123;28;20033;-80
2021/10/01 03:43:11;;;;;;;22.15;2.83;;;;;;;;;;5055200;28;20033;-80
2021/10/01 03:45:37;;;;;;;9.73;1.90;;;;;;;;;;5054740;28;20035;-80
2021/10/01 03:48:03;;;;;;;17.98;1.70;;;;;;;;;;5053698;28;20033;-80
2021/10/01 03:50:29;;;;;;;19.30;2.42;;;;;;;;;;5054655;28;20481;-81
2021/10/01 03:52:54;;;;;;;16.02;2.28;;;;;;;;;;5054868;28;20028;-79
2021/10/01 03:55:21;;;;;;;19.55;3.03;;;;;;;;;;5054850;28;20052;-80
2021/10/01 03:57:47;;;;;;;19.88;2.17;;;;;;;;;;5054812;28;20032;-81
2021/10/01 04:00:13;;;;;;;11.75;2.60;;;;;;;;;;5054531;28;20140;-79
2021/10/01 04:02:38;;;;;;;20.38;3.38;;;;;;;;;;5055110;28;20031;-80
2021/10/01 04:05:03;;;;;;;20.92;2.20;;;;;;;;;;5054654;28;20067;-80
2021/10/01 04:07:28;;;;;;;20.92;2.17;;;;;;;;;;5054464;28;20389;-79
2021/10/01 04:09:54;;;;;;;12.82;2.00;;;;;;;;;;5054461;28;20025;-80
2021/10/01 04:12:19;;;;;;;21.13;2.28;;;;;;;;;;5054701;28;20055;-79
2021/10/01 04:14:45;;;;;;;15.77;2.10;;;;;;;;;;5054354;28;20112;-80
2021/10/01 04:17:10;;;;;;;20.48;2.42;;;;;;;;;;5054434;28;20525;-79
2021/10/01 04:19:35;;;;;;;24.00;2.55;;;;;;;;;;5053561;28;20095;-79
2021/10/01 04:22:01;;;;;;;16.48;2.38;;;;;;;;;;5053037;28;20043;-79
2021/10/01 04:24:26;;;;;;;10.40;2.40;;;;;;;;;;5053007;28;20469;-80
2021/10/01 04:26:51;;;;;;;13.18;1.77;;;;;;;;;;5053439;28;20037;-80
2021/10/01 04:29:16;;;;;;;11.98;1.75;;;;;;;;;;5054428;28;20479;-80
2021/10/01 04:31:42;;;;;;;12.60;1.45;;;;;;;;;;5054212;28;20033;-81
2021/10/01 04:34:07;;;;;;;7.97;1.20;;;;;;;;;;5053497;28;20094;-80
2021/10/01 04:36:33;;;;;;;15.52;2.00;;;;;;;;;;5053996;28;20126;-80
2021/10/01 04:38:59;;;;;;;7.53;1.55;;;;;;;;;;5053974;28;20495;-80
2021/10/01 04:41:24;;;;;;;8.25;1.55;;;;;;;;;;5054049;28;20068;-80
2021/10/01 04:43:50;;;;;;;7.13;1.10;;;;;;;;;;5053855;28;20051;-80
2021/10/01 04:46:15;;;;;;;4.07;0.68;;;;;;;;;;5054026;28;20056;-80
2021/10/01 04:48:40;;;;;;;3.92;1.25;;;;;;;;;;5052669;28;20129;-80
2021/10/01 04:51:06;;;;;;;4.95;0.77;;;;;;;;;;5053781;28;20522;-80
2021/10/01 04:53:31;;;;;;;5.72;1.23;;;;;;;;;;5053635;28;20032;-81
2021/10/01 04:55:56;;;;;;;5.55;1.10;;;;;;;;;;5053665;28;20052;-81
2021/10/01 04:58:21;;;;;;;6.32;1.23;;;;;;;;;;5053796;28;20017;-80
2021/10/01 05:00:47;;;;;;;2.92;0.70;;;;;;;;;;5053909;28;20024;-81
2021/10/01 05:03:12;;;;;;;6.90;1.00;;;;;;;;;;5052361;28;20037;-80
2021/10/01 05:05:37;;;;;;;3.42;0.57;;;;;;;;;;5053625;28;20449;-81
2021/10/01 05:08:03;;;;;;;2.70;0.70;;;;;;;;;;5053556;28;20029;-80
2021/10/01 05:10:28;;;;;;;0.77;0.45;;;;;;;;;;5053621;28;20036;-81
2021/10/01 05:12:54;;;;;;;1.17;0.60;;;;;;;;;;5053690;28;20016;-80
2021/10/01 05:15:19;;;;;;;1.50;0.60;;;;;;;;;;5053437;28;20496;-80
2021/10/01 05:17:45;;;;;;;1.85;0.60;;;;;;;;;;5053396;28;20033;-80
2021/10/01 05:20:11;;;;;;;6.50;0.90;;;;;;;;;;5053450;28;20021;-80
2021/10/01 05:22:36;;;;;;;2.70;0.50;;;;;;;;;;5053418;28;20039;-81
2021/10/01 05:25:02;;;;;;;0.65;0.30;;;;;;;;;;5053304;28;20048;-80
2021/10/01 05:27:28;;;;;;;6.75;0.73;;;;;;;;;;5051707;28;20025;-80
2021/10/01 05:29:54;;;;;;;0.95;0.47;;;;;;;;;;5053053;28;20120;-80
2021/10/01 05:32:19;;;;;;;1.15;0.45;;;;;;;;;;5053339;28;20061;-80
2021/10/01 05:34:44;;;;;;;4.25;0.35;;;;;;;;;;5052903;28;20045;-80
2021/10/01 05:37:09;;;;;;;4.80;0.57;;;;;;;;;;5053160;28;20378;-80
2021/10/01 05:39:35;;;;;;;1.42;0.50;;;;;;;;;;5052838;28;20037;-80
2021/10/01 05:42:00;;;;;;;1.52;0.52;;;;;;;;;;5051812;28;20052;-80
2021/10/01 05:44:26;;;;;;;3.20;0.60;;;;;;;;;;5053296;28;20048;-80
2021/10/01 05:46:51;;;;;;;5.78;0.68;;;;;;;;;;5053354;28;20040;-81
2021/10/01 05:49:22;;;;;;;1.65;0.40;;;;;;;;;;5053150;28;20017;-80
2021/10/01 05:51:51;;;;;;;5.55;0.73;;;;;;;;;;5052981;28;20036;-80
2021/10/01 05:54:24;;;;;;;1.48;0.40;;;;;;;;;;5053010;28;20025;-80
2021/10/01 05:56:50;;;;;;;0.68;0.50;;;;;;;;;;5053040;28;20025;-80
2021/10/01 05:59:15;;;;;;;6.05;0.68;;;;;;;;;;5053059;28;20044;-80
2021/10/01 06:01:41;;;;;;;8.05;0.50;;;;;;;;;;5052637;28;20021;-80
2021/10/01 06:04:06;;;;;;;3.22;0.60;;;;;;;;;;5052934;28;20029;-80
2021/10/01 06:06:32;;;;;;;4.28;0.50;;;;;;;;;;5053102;28;20033;-80
2021/10/01 06:08:57;;;;;;;6.65;0.75;;;;;;;;;;5052914;28;20017;-80
2021/10/01 06:11:22;;;;;;;2.40;0.85;;;;;;;;;;5053044;28;20033;-79
2021/10/01 06:13:48;;;;;;;2.17;0.60;;;;;;;;;;5052849;28;20033;-80
2021/10/01 06:16:13;;;;;;;8.15;1.05;;;;;;;;;;5051488;28;20429;-80
2021/10/01 06:18:38;;;;;;;3.88;0.73;;;;;;;;;;5052800;28;20025;-80
2021/10/01 06:21:05;;;;;;;1.48;0.70;;;;;;;;;;5052810;28;20408;-80
2021/10/01 06:23:34;;;;;;;1.90;0.63;;;;;;;;;;5052893;28;20017;-80
2021/10/01 06:26:00;;;;;;;2.08;0.60;;;;;;;;;;5052453;28;20473;-80
2021/10/01 06:28:26;;;;;;;4.63;0.60;;;;;;;;;;5052539;28;20071;-80
2021/10/01 06:30:51;;;;;;;3.53;0.47;;;;;;;;;;5052396;28;20103;-81
2021/10/01 06:33:16;;;;;;;1.80;0.70;;;;;;;;;;5052546;28;20068;-80
2021/10/01 06:35:43;;;;;;;1.88;0.70;;;;;;;;;;5052096;28;20056;-80
2021/10/01 06:38:10;;;;;;;2.92;0.70;;;;;;;;;;5052589;28;20024;-80
2021/10/01 06:40:35;;;;;;;2.00;0.90;;;;;;;;;;5052419;28;20416;-81
2021/10/01 06:43:05;;;;;;;12.00;1.10;;;;;;;;;;5054413;28;20040;-80
2021/10/01 06:45:32;;;;;;;2.65;1.45;;;;;;;;;;5056368;28;20025;-80
2021/10/01 08:20:37;;;;;;;8.68;1.10;;;;;;;;;;5051520;28;20028;-85
2021/10/01 08:23:02;;;;;;;7.45;1.17;;;;;;;;;;5051400;28;20032;-81
2021/10/01 08:25:28;;;;;;;11.80;1.08;;;;;;;;;;5051417;28;20124;-82
2021/10/01 08:27:53;;;;;;;6.22;1.10;;;;;;;;;;5051026;28;20032;-81
2021/10/01 08:30:18;;;;;;;8.60;1.48;;;;;;;;;;5051397;28;20029;-83
2021/10/01 08:32:43;;;;;;;10.75;1.65;;;;;;;;;;5050626;28;20025;-85
2021/10/01 08:35:10;;;;;;;4.47;1.30;;;;;;;;;;5049731;28;20054;-82
2021/10/01 08:37:35;;;;;;;6.00;1.33;;;;;;;;;;5049233;28;20210;-80
2021/10/01 08:40:01;;;;;;;3.67;1.02;;;;;;;;;;5046826;28;20480;-83
2021/10/01 08:42:26;;;;;;;7.18;1.42;;;;;;;;;;5050131;28;20104;-82
2021/10/01 08:44:53;;;;;;;6.78;1.10;;;;;;;;;;5050123;28;20029;-82
2021/10/01 08:47:18;;;;;;;5.07;0.90;;;;;;;;;;5050648;28;20135;-81
2021/10/01 08:49:47;;;;;;;4.68;1.05;;;;;;;;;;5049882;28;20028;-81
2021/10/01 08:52:13;;;;;;;7.93;0.98;;;;;;;;;;5049176;28;20047;-82
2021/10/01 08:54:38;;;;;;;6.10;1.38;;;;;;;;;;5049994;28;20033;-83
2021/10/01 08:57:04;;;;;;;7.15;0.80;;;;;;;;;;5049906;28;20027;-82
2021/10/01 08:59:29;;;;;;;10.57;1.42;;;;;;;;;;5048744;28;20037;-81
2021/10/01 09:01:54;;;;;;;10.68;2.67;;;;;;;;;;5048435;28;20454;-84
2021/10/01 09:04:19;;;;;;;12.63;2.33;;;;;;;;;;5049501;28;20525;-81
2021/10/01 09:06:46;;;;;;;7.28;1.52;;;;;;;;;;5050089;28;20040;-83
2021/10/01 09:09:11;;;;;;;7.88;1.48;;;;;;;;;;5050396;28;20021;-82
2021/10/01 09:11:38;;;;;;;7.90;1.40;;;;;;;;;;5049946;28;20021;-82
2021/10/01 09:14:05;;;;;;;11.55;1.50;;;;;;;;;;5048554;28;20064;-83
2021/10/01 09:16:30;;;;;;;5.88;1.15;;;;;;;;;;5050398;28;20029;-82
2021/10/01 09:18:56;;;;;;;9.52;1.30;;;;;;;;;;5049448;28;20425;-82
2021/10/01 09:21:22;;;;;;;9.52;1.40;;;;;;;;;;5049337;28;20043;-82
2021/10/01 09:23:54;;;;;;;9.73;1.98;;;;;;;;;;5048935;28;20174;-82
2021/10/01 09:26:20;;;;;;;7.50;1.55;;;;;;;;;;5049539;28;20013;-81
2021/10/01 09:28:50;;;;;;;7.72;1.23;;;;;;;;;;5049231;28;20036;-82
2021/10/01 09:31:34;;;;;;;6.22;1.65;;;;;;;;;;5049362;28;20450;-82
2021/10/01 09:34:00;;;;;;;11.60;1.38;;;;;;;;;;5048737;28;20037;-80
2021/10/01 09:36:28;;;;;;;7.88;1.33;;;;;;;;;;5049034;28;20045;-84
2021/10/01 09:38:54;;;;;;;10.07;1.27;;;;;;;;;;5049347;28;20048;-80
2021/10/01 09:41:28;;;;;;;7.90;1.48;;;;;;;;;;5050108;28;20033;-81
2021/10/01 09:43:58;;;;;;;13.13;1.23;;;;;;;;;;5049684;28;20171;-81
2021/10/01 09:46:32;;;;;;;6.30;1.40;;;;;;;;;;5050441;28;20025;-81
2021/10/01 09:48:57;;;;;;;12.90;1.38;;;;;;;;;;5050069;28;20066;-80
2021/10/01 09:51:23;;;;;;;8.52;1.30;;;;;;;;;;5050437;28;20025;-85
2021/10/01 09:53:49;;;;;;;10.52;1.48;;;;;;;;;;5050335;28;20013;-81
2021/10/01 09:56:30;;;;;;;10.30;1.45;;;;;;;;;;5050049;28;20523;-81
2021/10/01 09:59:12;;;;;;;9.77;1.48;;;;;;;;;;5050517;28;20126;-81
2021/10/01 10:01:58;;;;;;;8.35;1.13;;;;;;;;;;5049826;28;20478;-82
2021/10/01 10:04:23;;;;;;;9.90;1.20;;;;;;;;;;5048461;28;20124;-81
2021/10/01 10:06:48;;;;;;;10.85;1.52;;;;;;;;;;5049621;28;20108;-81
2021/10/01 10:09:13;;;;;;;6.13;1.27;;;;;;;;;;5049242;28;20354;-82
2021/10/01 10:11:42;;;;;;;5.60;0.73;;;;;;;;;;5049830;28;20096;-82
2021/10/01 10:14:08;;;;;;;6.03;1.15;;;;;;;;;;5049594;28;20082;-81
2021/10/01 10:16:33;;;;;;;5.93;0.88;;;;;;;;;;5050019;28;20033;-81
2021/10/01 10:19:07;;;;;;;3.95;0.95;;;;;;;;;;5049164;28;20492;-81
2021/10/01 10:21:33;;;;;;;5.45;1.08;;;;;;;;;;5053214;28;20044;-81
2021/10/01 10:23:58;;;;;;;5.07;1.10;;;;;;;;;;5052667;28;20025;-82
2021/10/01 10:26:25;;;;;;;4.80;1.05;;;;;;;;;;5052705;28;20029;-81
2021/10/01 10:28:52;;;;;;;3.67;0.88;;;;;;;;;;5052902;28;20059;-82
2021/10/01 10:31:18;;;;;;;12.05;1.65;;;;;;;;;;5051315;28;20458;-84
2021/10/01 10:33:46;;;;;;;9.35;1.27;;;;;;;;;;5052345;28;20104;-82
2021/10/01 10:36:30;;;;;;;4.35;0.93;;;;;;;;;;5053012;28;20071;-82
2021/10/01 10:38:56;;;;;;;6.10;1.00;;;;;;;;;;5032230;28;20033;-81
2021/10/01 10:41:25;;;;;;;5.40;0.95;;;;;;;;;;5032299;28;20044;-83
2021/10/01 10:43:50;;;;;;;8.93;1.08;;;;;;;;;;5032422;28;20099;-82
2021/10/01 10:46:34;;;;;;;5.63;0.88;;;;;;;;;;5032973;28;20057;-82
2021/10/01 10:49:20;;;;;;;4.60;1.00;;;;;;;;;;5032282;28;20029;-81
2021/10/01 10:52:02;;;;;;;7.75;1.00;;;;;;;;;;5032384;28;20781;-81
2021/10/01 10:54:29;;;;;;;7.90;1.27;;;;;;;;;;5032679;28;20119;-82
2021/10/01 10:57:14;;;;;;;4.82;1.23;;;;;;;;;;5032889;28;20040;-82
2021/10/01 10:59:39;;;;;;;7.03;1.02;;;;;;;;;;5033314;28;20079;-82
2021/10/01 11:02:44;;;;;;;7.13;0.90;;;;;;;;;;5032499;28;20025;-82
2021/10/01 11:05:17;;;;;;;6.70;0.88;;;;;;;;;;5032563;28;20029;-82
2021/10/01 11:07:50;;;;;;;3.25;0.85;;;;;;;;;;5031128;28;20064;-84
2021/10/01 11:10:34;;;;;;;3.05;0.80;;;;;;;;;;5032678;28;20095;-82
2021/10/01 11:13:18;;;;;;;7.18;1.00;;;;;;;;;;5029179;28;20553;-83
2021/10/01 11:16:03;;;;;;;5.05;0.70;;;;;;;;;;5030190;28;20069;-82
2021/10/01 11:18:28;;;;;;;4.65;0.63;;;;;;;;;;5031994;28;20482;-83
2021/10/01 11:20:53;;;;;;;7.00;1.35;;;;;;;;;;5031341;28;20160;-82
2021/10/01 11:23:19;;;;;;;4.53;0.68;;;;;;;;;;5031960;28;20030;-82
2021/10/01 11:25:45;;;;;;;2.75;0.43;;;;;;;;;;5031172;28;20140;-82
2021/10/01 11:28:12;;;;;;;8.43;0.80;;;;;;;;;;5031645;28;20030;-82
2021/10/01 11:30:37;;;;;;;3.15;0.80;;;;;;;;;;5032462;28;20018;-81
2021/10/01 11:33:10;;;;;;;5.93;1.10;;;;;;;;;;5031552;28;20036;-85
2021/10/01 11:35:45;;;;;;;4.40;0.63;;;;;;;;;;5029841;28;20049;-82
2021/10/01 11:38:18;;;;;;;5.57;1.30;;;;;;;;;;5047419;28;20170;-82
2021/10/01 11:40:43;;;;;;;4.60;0.88;;;;;;;;;;5051610;28;20040;-83
2021/10/01 11:43:09;;;;;;;9.45;0.90;;;;;;;;;;5051699;28;20027;-82
2021/10/01 11:45:35;;;;;;;6.07;0.70;;;;;;;;;;5051110;28;20025;-82
2021/10/01 11:48:07;;;;;;;6.32;0.50;;;;;;;;;;5051436;28;20041;-82
2021/10/01 11:50:33;;;;;;;4.43;0.60;;;;;;;;;;5050830;28;20382;-82
2021/10/01 11:52:58;;;;;;;7.30;0.80;;;;;;;;;;5051891;28;20059;-81
2021/10/01 11:55:25;;;;;;;5.55;0.73;;;;;;;;;;5050647;28;20132;-83
2021/10/01 11:57:50;;;;;;;7.80;1.33;;;;;;;;;;5050855;28;20021;-83
2021/10/01 12:00:22;;;;;;;2.33;0.40;;;;;;;;;;5051435;28;20025;-82
2021/10/01 12:02:48;;;;;;;8.02;0.90;;;;;;;;;;5052022;28;20392;-81
2021/10/01 12:05:30;;;;;;;3.95;0.60;;;;;;;;;;5052174;28;20454;-81
2021/10/01 12:08:15;;;;;;;7.28;0.70;;;;;;;;;;5051531;28;20029;-88
2021/10/01 12:10:42;;;;;;;4.30;0.80;;;;;;;;;;5052279;28;20099;-81
2021/10/01 12:13:13;;;;;;;4.28;0.60;;;;;;;;;;5051700;28;20370;-81
2021/10/01 12:15:39;;;;;;;4.82;0.40;;;;;;;;;;5052059;28;20041;-82
2021/10/01 12:18:24;;;;;;;5.47;0.80;;;;;;;;;;5051102;28;20103;-82
2021/10/01 12:20:49;;;;;;;4.28;0.98;;;;;;;;;;5050427;28;20453;-82
2021/10/01 12:23:18;;;;;;;8.60;0.70;;;;;;;;;;5050979;28;20111;-81
2021/10/01 12:25:43;;;;;;;4.45;0.57;;;;;;;;;;5050814;28;20437;-81
2021/10/01 12:28:09;;;;;;;4.13;0.50;;;;;;;;;;5050993;28;20059;-81
2021/10/01 12:30:34;;;;;;;2.85;0.43;;;;;;;;;;5050854;28;20067;-81
2021/10/01 12:32:59;;;;;;;4.30;0.57;;;;;;;;;;5051360;28;20026;-81
2021/10/01 12:35:25;;;;;;;2.78;0.43;;;;;;;;;;5050646;28;20072;-81
2021/10/01 12:37:50;;;;;;;9.48;1.15;;;;;;;;;;5050697;28;20531;-81
2021/10/01 12:40:15;;;;;;;2.22;0.80;;;;;;;;;;5049758;28;20017;-82
2021/10/01 12:42:41;;;;;;;2.53;0.50;;;;;;;;;;5050828;28;20044;-82
2021/10/01 12:45:14;;;;;;;3.67;0.77;;;;;;;;;;5050718;28;20037;-83
2021/10/01 12:47:43;;;;;;;3.13;1.27;;;;;;;;;;5050342;28;20031;-82
2021/10/01 12:50:10;;;;;;;4.00;0.65;;;;;;;;;;5050980;28;20032;-81
2021/10/01 12:52:39;;;;;;;9.50;1.00;;;;;;;;;;5051200;28;20056;-81
2021/10/01 12:55:05;;;;;;;6.82;1.25;;;;;;;;;;5051002;28;20037;-81
2021/10/01 12:57:36;;;;;;;10.13;1.38;;;;;;;;;;5049620;28;20086;-81
2021/10/01 13:00:01;;;;;;;5.47;0.70;;;;;;;;;;5051020;28;20411;-82
2021/10/01 13:02:26;;;;;;;2.45;0.35;;;;;;;;;;5051109;28;20025;-82
2021/10/01 13:04:57;;;;;;;7.30;1.10;;;;;;;;;;5051555;28;20025;-81
2021/10/01 13:07:30;;;;;;;2.92;0.60;;;;;;;;;;5051016;28;20086;-81
2021/10/01 13:09:56;;;;;;;3.28;0.55;;;;;;;;;;5050556;28;20028;-85
2021/10/01 13:12:39;;;;;;;3.65;0.98;;;;;;;;;;5050641;28;20040;-81
2021/10/01 13:15:07;;;;;;;2.67;0.50;;;;;;;;;;5050312;28;20393;-84
2021/10/01 13:17:32;;;;;;;7.18;0.70;;;;;;;;;;5048742;28;20501;-81
2021/10/01 13:19:58;;;;;;;5.03;0.57;;;;;;;;;;5050298;28;20060;-81
2021/10/01 13:22:23;;;;;;;2.28;0.57;;;;;;;;;;5050394;28;20382;-82
2021/10/01 13:24:54;;;;;;;6.10;1.35;;;;;;;;;;5050324;28;20037;-81
2021/10/01 13:27:19;;;;;;;6.72;0.55;;;;;;;;;;5050800;28;20017;-81
2021/10/01 13:29:45;;;;;;;3.35;0.80;;;;;;;;;;5049332;28;20029;-84
2021/10/01 13:32:10;;;;;;;2.97;0.50;;;;;;;;;;5050637;28;20116;-81
2021/10/01 13:34:35;;;;;;;5.65;1.00;;;;;;;;;;5050919;28;20073;-81
2021/10/01 13:37:01;;;;;;;8.70;0.73;;;;;;;;;;5050188;28;20035;-81
2021/10/01 13:39:26;;;;;;;3.92;0.60;;;;;;;;;;5050953;28;20079;-81
2021/10/01 13:41:51;;;;;;;1.30;0.45;;;;;;;;;;5051079;28;20044;-81
2021/10/01 13:44:19;;;;;;;2.22;0.50;;;;;;;;;;5050197;28;20372;-82
2021/10/01 13:46:44;;;;;;;2.58;0.50;;;;;;;;;;5049955;28;20033;-83
2021/10/01 13:49:09;;;;;;;5.13;0.75;;;;;;;;;;5049850;28;20460;-81
2021/10/01 13:51:35;;;;;;;4.38;0.93;;;;;;;;;;5052803;28;20102;-82
2021/10/01 13:54:00;;;;;;;4.28;0.65;;;;;;;;;;5054033;28;20043;-80
2021/10/01 13:56:25;;;;;;;4.15;0.65;;;;;;;;;;5054519;28;20025;-80
2021/10/01 13:58:53;;;;;;;3.97;0.55;;;;;;;;;;5053199;28;20021;-80
2021/10/01 14:01:19;;;;;;;5.13;0.60;;;;;;;;;;5054180;28;20028;-82
2021/10/01 14:03:44;;;;;;;3.83;1.08;;;;;;;;;;5051381;28;20480;-79
2021/10/01 14:06:09;;;;;;;7.43;0.70;;;;;;;;;;5054880;28;20033;-80
2021/10/01 14:08:35;;;;;;;5.72;1.08;;;;;;;;;;5054226;28;20175;-80
2021/10/01 14:11:00;;;;;;;3.63;0.80;;;;;;;;;;5054112;28;20032;-81
2021/10/01 14:13:25;;;;;;;3.17;0.60;;;;;;;;;;5052936;28;20421;-81
2021/10/01 14:15:52;;;;;;;3.47;0.80;;;;;;;;;;5053206;28;20044;-80
2021/10/01 14:18:17;;;;;;;2.30;0.45;;;;;;;;;;5053120;28;20013;-80
2021/10/01 14:20:44;;;;;;;3.35;0.63;;;;;;;;;;5053006;28;20163;-81
2021/10/01 14:23:09;;;;;;;3.55;0.73;;;;;;;;;;5052795;28;20032;-80
2021/10/01 14:25:35;;;;;;;2.75;0.50;;;;;;;;;;5052794;28;20028;-81
2021/10/01 14:28:01;;;;;;;4.90;0.68;;;;;;;;;;5052227;28;20432;-80
2021/10/01 14:30:28;;;;;;;9.02;1.38;;;;;;;;;;5052495;28;20032;-80
2021/10/01 14:32:54;;;;;;;7.88;1.15;;;;;;;;;;5053100;28;20020;-82
2021/10/01 14:35:20;;;;;;;4.47;0.93;;;;;;;;;;5052477;28;20057;-80
2021/10/01 14:37:45;;;;;;;3.30;0.80;;;;;;;;;;5052288;28;20059;-83
2021/10/01 14:40:11;;;;;;;3.83;0.80;;;;;;;;;;5052871;28;20021;-80
2021/10/01 14:42:36;;;;;;;8.93;1.73;;;;;;;;;;5052463;28;20020;-81
2021/10/01 14:45:03;;;;;;;3.42;0.63;;;;;;;;;;5052131;28;20048;-86
2021/10/01 14:47:31;;;;;;;7.55;0.80;;;;;;;;;;5051584;28;20393;-79
2021/10/01 14:49:57;;;;;;;9.00;0.80;;;;;;;;;;5052451;28;20025;-80
2021/10/01 14:52:22;;;;;;;4.95;1.08;;;;;;;;;;5052825;28;20079;-83
2021/10/01 14:54:48;;;;;;;2.78;0.70;;;;;;;;;;5052179;28;20025;-80
2021/10/01 14:57:13;;;;;;;4.97;0.70;;;;;;;;;;5052333;28;20033;-79
2021/10/01 14:59:38;;;;;;;7.13;1.30;;;;;;;;;;5051937;28;20104;-87
2021/10/01 15:02:04;;;;;;;7.78;0.90;;;;;;;;;;5052681;28;20071;-79
2021/10/01 15:04:29;;;;;;;6.43;0.70;;;;;;;;;;5051693;28;20120;-79
2021/10/01 15:06:54;;;;;;;3.75;1.02;;;;;;;;;;5052067;28;20029;-80
2021/10/01 15:09:19;;;;;;;8.05;0.95;;;;;;;;;;5052087;28;20024;-79
2021/10/01 15:11:45;;;;;;;3.10;0.60;;;;;;;;;;5052216;28;20028;-81
2021/10/01 15:14:10;;;;;;;3.97;0.60;;;;;;;;;;5051970;28;20162;-83
2021/10/01 15:16:35;;;;;;;3.50;0.85;;;;;;;;;;5050772;28;20346;-80
2021/10/01 15:19:02;;;;;;;8.07;0.70;;;;;;;;;;5051953;28;20473;-81
2021/10/01 15:21:27;;;;;;;3.50;0.85;;;;;;;;;;5051591;28;20033;-79
2021/10/01 15:23:53;;;;;;;4.43;0.60;;;;;;;;;;5051913;28;20029;-80
2021/10/01 15:26:18;;;;;;;3.83;0.73;;;;;;;;;;5052049;28;20094;-79
2021/10/01 15:28:43;;;;;;;4.43;0.82;;;;;;;;;;5051941;28;20033;-81
2021/10/01 15:31:09;;;;;;;7.88;0.93;;;;;;;;;;5052076;28;20035;-79
2021/10/01 15:33:34;;;;;;;5.25;0.77;;;;;;;;;;5051953;28;20029;-80
2021/10/01 15:36:00;;;;;;;6.70;0.60;;;;;;;;;;5050739;28;20544;-80
2021/10/01 15:38:26;;;;;;;5.55;0.70;;;;;;;;;;5052054;28;20386;-82
2021/10/01 15:40:52;;;;;;;5.20;1.02;;;;;;;;;;5051265;28;20025;-79
2021/10/01 15:43:17;;;;;;;8.43;0.90;;;;;;;;;;5051189;28;20040;-82
2021/10/01 15:45:44;;;;;;;5.57;1.20;;;;;;;;;;5049766;28;20374;-80
2021/10/01 15:48:10;;;;;;;7.80;1.98;;;;;;;;;;5051417;28;20025;-79
2021/10/01 15:50:36;;;;;;;6.75;1.55;;;;;;;;;;5050765;28;20541;-80
2021/10/01 15:53:01;;;;;;;8.45;1.52;;;;;;;;;;5051922;28;20017;-83
2021/10/01 15:55:27;;;;;;;3.08;0.90;;;;;;;;;;5052083;28;20045;-79
2021/10/01 15:57:52;;;;;;;5.25;0.80;;;;;;;;;;5052716;28;20037;-81
2021/10/01 16:00:18;;;;;;;2.75;0.75;;;;;;;;;;5052694;28;20181;-81
2021/10/01 16:02:44;;;;;;;3.42;0.68;;;;;;;;;;5051385;28;20484;-81
2021/10/01 16:05:10;;;;;;;8.48;0.98;;;;;;;;;;5052517;28;20033;-85
2021/10/01 16:07:36;;;;;;;5.63;0.90;;;;;;;;;;5052075;28;20017;-79
2021/10/01 16:10:06;;;;;;;8.13;0.98;;;;;;;;;;5052124;28;20900;-79
2021/10/01 16:12:31;;;;;;;8.68;0.88;;;;;;;;;;5052409;28;20390;-80